createdAt,value
2024-02-10T00:01:25.645Z,6.87
2024-02-10T00:03:52.678Z,6.07
2024-02-10T00:06:19.572Z,6.80
2024-02-10T00:08:46.532Z,6.90
2024-02-10T00:11:13.533Z,7.97
2024-02-10T00:13:43.111Z,10.70
2024-02-10T00:16:12.224Z,8.40
2024-02-10T00:18:39.430Z,8.00
2024-02-10T00:21:06.388Z,7.47
2024-02-10T00:23:33.228Z,7.63
2024-02-10T00:26:05.271Z,7.37
2024-02-10T00:28:35.417Z,6.77
2024-02-10T00:31:02.231Z,7.43
2024-02-10T00:33:30.716Z,7.20
2024-02-10T00:35:57.544Z,8.90
2024-02-10T00:38:24.352Z,8.50
2024-02-10T00:40:51.248Z,8.20
2024-02-10T00:43:18.073Z,8.67
2024-02-10T00:45:48.504Z,8.03
2024-02-10T00:48:15.956Z,7.70
2024-02-10T00:50:43.804Z,7.77
2024-02-10T00:53:12.339Z,9.43
2024-02-10T00:55:39.201Z,9.07
2024-02-10T00:58:07.364Z,8.77
2024-02-10T01:00:37.794Z,9.53
2024-02-10T01:03:10.264Z,9.43
2024-02-10T01:05:40.521Z,11.53
2024-02-10T01:08:07.811Z,11.40
2024-02-10T01:10:35.760Z,10.23
2024-02-10T01:13:05.474Z,7.87
2024-02-10T01:15:34.088Z,8.93
2024-02-10T01:18:05.150Z,7.47
2024-02-10T01:20:32.218Z,6.67
2024-02-10T01:23:00.504Z,7.20
2024-02-10T01:25:30.755Z,6.40
2024-02-10T01:27:57.619Z,8.80
2024-02-10T01:30:27.336Z,11.87
2024-02-10T01:32:59.661Z,9.90
2024-02-10T01:35:26.944Z,7.80
2024-02-10T01:37:54.038Z,7.53
2024-02-10T01:40:21.006Z,7.40
2024-02-10T01:42:47.872Z,7.07
2024-02-10T01:45:15.158Z,7.43
2024-02-10T01:47:46.509Z,6.67
2024-02-10T01:50:14.291Z,9.97
2024-02-10T01:52:41.614Z,7.77
2024-02-10T01:55:10.793Z,8.83
2024-02-10T01:57:38.176Z,6.77
2024-02-10T02:00:07.049Z,7.50
2024-02-10T02:02:34.885Z,8.47
2024-02-10T02:05:03.976Z,8.97
2024-02-10T02:07:34.113Z,8.70
2024-02-10T02:10:02.590Z,8.50
2024-02-10T02:12:30.004Z,7.50
2024-02-10T02:14:58.714Z,7.63
2024-02-10T02:17:26.094Z,7.43
2024-02-10T02:19:53.349Z,8.03
2024-02-10T02:22:21.184Z,7.70
2024-02-10T02:24:48.634Z,8.50
2024-02-10T02:27:16.709Z,6.93
2024-02-10T02:29:43.881Z,6.47
2024-02-10T02:32:12.199Z,6.90
2024-02-10T02:34:39.765Z,6.83
2024-02-10T02:37:08.342Z,6.57
2024-02-10T02:39:37.020Z,5.70
2024-02-10T02:42:06.422Z,6.00
2024-02-10T02:44:33.648Z,4.30
2024-02-10T02:47:06.425Z,4.20
2024-02-10T02:49:34.914Z,10.40
2024-02-10T02:52:02.097Z,6.03
2024-02-10T02:54:31.060Z,6.67
2024-02-10T02:57:01.270Z,5.37
2024-02-10T02:59:28.250Z,5.70
2024-02-10T03:01:55.944Z,4.73
2024-02-10T03:04:23.686Z,3.87
2024-02-10T03:06:52.170Z,4.00
2024-02-10T03:09:19.541Z,5.00
2024-02-10T03:11:46.428Z,3.80
2024-02-10T03:14:13.339Z,4.30
2024-02-10T03:16:41.101Z,4.13
2024-02-10T03:19:08.793Z,3.17
2024-02-10T03:21:37.225Z,2.77
2024-02-10T03:24:05.486Z,2.80
2024-02-10T03:26:36.856Z,2.57
2024-02-10T03:29:03.937Z,3.23
2024-02-10T03:31:31.149Z,3.80
2024-02-10T03:33:58.258Z,4.17
2024-02-10T03:36:25.893Z,4.10
2024-02-10T03:38:54.763Z,4.57
2024-02-10T03:41:24.641Z,4.80
2024-02-10T03:43:51.484Z,5.77
2024-02-10T03:46:20.650Z,5.33
2024-02-10T03:48:47.726Z,4.93
2024-02-10T03:51:14.776Z,5.60
2024-02-10T03:53:41.889Z,5.73
2024-02-10T03:56:10.920Z,9.53
2024-02-10T03:58:42.293Z,6.43
2024-02-10T04:01:14.887Z,8.00
2024-02-10T04:03:43.691Z,7.00
2024-02-10T04:06:10.911Z,6.30
2024-02-10T04:08:38.118Z,7.10
2024-02-10T04:11:08.276Z,6.17
2024-02-10T04:13:35.907Z,5.67
2024-02-10T04:16:03.088Z,4.83
2024-02-10T04:18:29.976Z,6.60
2024-02-10T04:20:57.125Z,6.80
2024-02-10T04:23:30.860Z,6.10
2024-02-10T04:25:58.092Z,6.50
2024-02-10T04:28:25.939Z,7.30
2024-02-10T04:30:53.296Z,6.10
2024-02-10T04:33:23.878Z,5.67
2024-02-10T04:35:51.203Z,5.83
2024-02-10T04:38:18.312Z,6.23
2024-02-10T04:40:46.420Z,5.60
2024-02-10T04:43:18.597Z,5.73
2024-02-10T04:45:49.624Z,6.70
2024-02-10T04:48:20.851Z,6.80
2024-02-10T04:50:48.054Z,4.33
2024-02-10T04:53:17.426Z,5.10
2024-02-10T04:55:45.531Z,4.20
2024-02-10T04:58:14.313Z,4.47
2024-02-10T05:00:42.635Z,4.53
2024-02-10T05:03:09.669Z,4.57
2024-02-10T05:05:36.682Z,4.30
2024-02-10T05:08:03.816Z,3.30
2024-02-10T05:10:30.802Z,3.97
2024-02-10T05:12:58.230Z,3.57
2024-02-10T05:15:26.596Z,3.57
2024-02-10T05:17:55.083Z,3.53
2024-02-10T05:20:24.204Z,3.70
2024-02-10T05:22:55.794Z,3.90
2024-02-10T05:25:24.714Z,3.87
2024-02-10T05:27:52.136Z,4.07
2024-02-10T05:30:21.962Z,4.47
2024-02-10T05:32:51.091Z,4.93
2024-02-10T05:35:19.629Z,5.20
2024-02-10T05:37:58.006Z,4.67
2024-02-10T05:40:27.088Z,4.80
2024-02-10T05:42:57.898Z,5.50
2024-02-10T05:45:24.698Z,5.37
2024-02-10T05:47:52.839Z,5.40
2024-02-10T05:50:24.283Z,5.77
2024-02-10T05:52:53.713Z,6.23
2024-02-10T05:55:26.934Z,6.97
2024-02-10T05:57:56.591Z,5.63
2024-02-10T06:00:24.111Z,5.37
2024-02-10T06:02:50.928Z,5.97
2024-02-10T06:05:18.815Z,6.90
2024-02-10T06:07:47.154Z,7.03
2024-02-10T06:10:15.428Z,7.03
2024-02-10T06:12:51.872Z,6.70
2024-02-10T06:15:20.625Z,5.83
2024-02-10T06:17:54.000Z,7.33
2024-02-10T06:20:23.990Z,7.13
2024-02-10T06:22:53.252Z,7.47
2024-02-10T06:25:24.238Z,6.87
2024-02-10T06:27:53.723Z,6.07
2024-02-10T06:30:21.662Z,7.63
2024-02-10T06:32:49.252Z,7.00
2024-02-10T06:35:18.114Z,8.73
2024-02-10T06:37:47.299Z,8.47
2024-02-10T06:40:15.719Z,8.33
2024-02-10T06:42:44.303Z,9.83
2024-02-10T06:45:17.671Z,7.67
2024-02-10T06:47:46.160Z,6.47
2024-02-10T06:50:15.259Z,7.10
2024-02-10T06:52:43.633Z,6.00
2024-02-10T06:55:13.531Z,5.40
2024-02-10T06:57:42.909Z,5.40
2024-02-10T07:00:16.850Z,6.37
2024-02-10T07:02:45.299Z,6.70
2024-02-10T07:05:14.477Z,7.10
2024-02-10T07:07:43.056Z,6.43
2024-02-10T07:10:16.858Z,7.80
2024-02-10T07:12:46.109Z,7.50
2024-02-10T07:15:15.188Z,7.03
2024-02-10T07:17:45.389Z,6.80
2024-02-10T07:20:22.858Z,6.27
2024-02-10T07:22:53.472Z,6.40
2024-02-10T07:25:20.816Z,7.53
2024-02-10T07:27:48.156Z,11.33
2024-02-10T07:30:16.365Z,6.80
2024-02-10T07:32:43.242Z,7.37
2024-02-10T07:35:10.247Z,7.43
2024-02-10T07:37:37.915Z,7.40
2024-02-10T07:40:05.347Z,9.70
2024-02-10T07:42:32.137Z,9.27
2024-02-10T07:45:00.343Z,9.17
2024-02-10T07:47:27.323Z,9.20
2024-02-10T07:49:54.457Z,9.63
2024-02-10T07:52:21.826Z,9.97
2024-02-10T07:54:51.913Z,9.20
2024-02-10T07:57:21.484Z,9.93
2024-02-10T07:59:57.841Z,10.60
2024-02-10T08:02:29.099Z,13.10
2024-02-10T08:04:58.425Z,19.37
2024-02-10T08:07:31.581Z,22.70
2024-02-10T08:09:59.610Z,21.23
2024-02-10T08:12:27.597Z,23.80
2024-02-10T08:14:56.717Z,22.23
2024-02-10T08:17:27.821Z,18.77
2024-02-10T08:19:58.152Z,17.20
2024-02-10T08:22:32.192Z,18.30
2024-02-10T08:25:00.649Z,16.93
2024-02-10T08:27:29.795Z,14.20
2024-02-10T08:29:58.144Z,12.40
2024-02-10T08:32:26.232Z,11.03
2024-02-10T08:34:53.140Z,10.50
2024-02-10T08:37:20.752Z,11.13
2024-02-10T08:39:47.706Z,11.30
2024-02-10T08:42:15.381Z,11.27
2024-02-10T08:44:45.193Z,11.00
2024-02-10T08:47:12.221Z,11.17
2024-02-10T08:49:42.474Z,10.40
2024-02-10T08:52:17.554Z,11.20
2024-02-10T08:54:45.635Z,10.57
2024-02-10T08:57:14.290Z,9.67
2024-02-10T08:59:52.576Z,9.80
2024-02-10T09:02:20.055Z,11.13
2024-02-10T09:04:47.518Z,9.87
2024-02-10T09:07:16.349Z,10.50
2024-02-10T09:09:43.468Z,10.07
2024-02-10T09:12:10.475Z,10.33
2024-02-10T09:14:37.405Z,10.17
2024-02-10T09:17:04.566Z,10.60
2024-02-10T09:19:36.465Z,9.67
2024-02-10T09:22:07.594Z,10.80
2024-02-10T09:24:36.363Z,11.33
2024-02-10T09:27:05.206Z,11.17
2024-02-10T09:29:32.040Z,10.20
2024-02-10T09:32:01.411Z,12.53
2024-02-10T09:34:29.289Z,12.13
2024-02-10T09:36:59.294Z,10.93
2024-02-10T09:39:27.035Z,10.90
2024-02-10T09:41:57.300Z,10.97
2024-02-10T09:44:24.274Z,11.13
2024-02-10T09:46:58.008Z,11.73
2024-02-10T09:49:28.946Z,10.47
2024-02-10T09:51:55.954Z,9.63
2024-02-10T09:54:22.819Z,10.00
2024-02-10T09:56:51.393Z,9.73
2024-02-10T09:59:24.493Z,10.90
2024-02-10T10:01:52.508Z,9.00
2024-02-10T10:04:22.450Z,9.83
2024-02-10T10:06:49.810Z,9.20
2024-02-10T10:09:20.103Z,9.13
2024-02-10T10:11:49.511Z,9.93
2024-02-10T10:14:21.306Z,9.37
2024-02-10T10:17:00.344Z,9.20
2024-02-10T10:19:28.802Z,8.90
2024-02-10T10:21:57.585Z,10.33
2024-02-10T10:24:26.246Z,9.70
2024-02-10T10:26:56.863Z,9.97
2024-02-10T10:29:24.427Z,10.33
2024-02-10T10:31:54.835Z,10.33
2024-02-10T10:34:24.355Z,10.97
2024-02-10T10:36:54.053Z,10.23
2024-02-10T10:39:23.718Z,10.50
2024-02-10T10:41:55.201Z,10.00
2024-02-10T10:44:22.852Z,10.93
2024-02-10T10:46:51.518Z,10.37
2024-02-10T10:49:18.331Z,10.83
2024-02-10T10:52:05.391Z,10.03
2024-02-10T10:54:41.025Z,10.13
2024-02-10T10:57:17.030Z,11.07
2024-02-10T10:59:49.725Z,10.20
2024-02-10T11:02:23.848Z,12.07
2024-02-10T11:05:27.449Z,11.03
2024-02-10T11:08:03.617Z,10.40
2024-02-10T11:10:45.596Z,10.70
2024-02-10T11:13:23.686Z,10.53
2024-02-10T11:16:04.539Z,10.60
2024-02-10T11:18:35.323Z,11.30
2024-02-10T11:21:09.325Z,11.53
2024-02-10T11:23:36.283Z,10.53
2024-02-10T11:26:06.361Z,10.83
2024-02-10T11:28:37.771Z,10.27
2024-02-10T11:31:09.450Z,11.57
2024-02-10T11:33:37.211Z,11.40
2024-02-10T11:36:04.388Z,12.50
2024-02-10T11:38:31.273Z,14.47
2024-02-10T11:40:58.377Z,17.07
2024-02-10T11:43:25.265Z,18.37
2024-02-10T11:45:52.081Z,17.07
2024-02-10T11:48:19.148Z,14.27
2024-02-10T11:50:59.265Z,13.00
2024-02-10T11:53:32.472Z,11.67
2024-02-10T11:56:07.835Z,10.87
2024-02-10T11:58:37.239Z,10.73
2024-02-10T12:01:04.489Z,11.90
2024-02-10T12:03:32.454Z,11.53
2024-02-10T12:06:03.464Z,13.27
2024-02-10T12:08:31.932Z,12.10
2024-02-10T12:10:58.874Z,12.50
2024-02-10T12:13:28.161Z,12.27
2024-02-10T12:16:05.510Z,11.90
2024-02-10T12:18:34.008Z,13.60
2024-02-10T12:21:02.761Z,13.17
2024-02-10T12:23:30.699Z,11.63
2024-02-10T12:25:58.118Z,11.60
2024-02-10T12:28:25.194Z,10.80
2024-02-10T12:30:52.735Z,12.47
2024-02-10T12:33:20.571Z,11.57
2024-02-10T12:35:50.826Z,11.37
2024-02-10T12:38:17.895Z,11.07
2024-02-10T12:40:44.756Z,11.40
2024-02-10T12:43:14.717Z,11.93
2024-02-10T12:45:48.890Z,12.23
2024-02-10T12:48:18.832Z,12.07
2024-02-10T12:50:48.360Z,11.10
2024-02-10T12:53:18.573Z,12.53
2024-02-10T12:55:47.312Z,11.77
2024-02-10T12:58:14.605Z,12.30
2024-02-10T13:00:41.747Z,11.17
2024-02-10T13:03:09.257Z,11.57
2024-02-10T13:05:36.264Z,12.23
2024-02-10T13:08:03.467Z,13.30
2024-02-10T13:10:30.662Z,10.70
2024-02-10T13:13:02.805Z,11.77
2024-02-10T13:15:30.319Z,9.23
2024-02-10T13:18:00.949Z,8.57
2024-02-10T13:20:28.415Z,8.67
2024-02-10T13:22:58.127Z,8.90
2024-02-10T13:25:26.099Z,8.90
2024-02-10T13:27:53.328Z,7.87
2024-02-10T13:30:23.346Z,7.47
2024-02-10T13:32:51.603Z,7.33
2024-02-10T13:35:21.702Z,7.27
2024-02-10T13:38:08.670Z,7.13
2024-02-10T13:40:57.210Z,7.47
2024-02-10T13:43:43.620Z,6.50
2024-02-10T13:46:29.527Z,6.50
2024-02-10T13:49:15.207Z,7.10
2024-02-10T13:52:01.035Z,7.00
2024-02-10T13:54:46.496Z,6.67
2024-02-10T13:57:31.785Z,7.17
2024-02-10T13:59:58.587Z,7.00
2024-02-10T14:02:25.445Z,7.13
2024-02-10T14:04:52.985Z,6.83
2024-02-10T14:07:30.297Z,7.43
2024-02-10T14:10:16.669Z,7.20
2024-02-10T14:12:46.890Z,7.07
2024-02-10T14:15:28.557Z,6.27
2024-02-10T14:18:00.394Z,7.43
2024-02-10T14:20:30.471Z,6.43
2024-02-10T14:23:00.292Z,7.60
2024-02-10T14:25:29.242Z,6.83
2024-02-10T14:28:00.735Z,6.53
2024-02-10T14:30:43.960Z,7.37
2024-02-10T14:33:16.882Z,6.40
2024-02-10T14:35:53.452Z,6.63
2024-02-10T14:38:49.844Z,7.43
2024-02-10T14:41:16.764Z,6.87
2024-02-10T14:43:45.676Z,6.87
2024-02-10T14:46:16.060Z,8.37
2024-02-10T14:48:44.400Z,7.10
2024-02-10T14:51:13.031Z,7.03
2024-02-10T14:53:40.601Z,6.57
2024-02-10T14:56:21.870Z,6.80
2024-02-10T14:58:49.389Z,7.03
2024-02-10T15:01:16.229Z,7.00
2024-02-10T15:03:43.420Z,6.10
2024-02-10T15:06:21.544Z,6.80
2024-02-10T15:08:54.499Z,7.60
2024-02-10T15:11:23.193Z,7.50
2024-02-10T15:13:50.150Z,6.60
2024-02-10T15:16:24.671Z,6.90
2024-02-10T15:18:54.684Z,6.70
2024-02-10T15:21:22.196Z,7.00
2024-02-10T15:23:49.762Z,11.30
2024-02-10T15:26:18.357Z,9.73
2024-02-10T15:28:46.918Z,7.37
2024-02-10T15:31:19.917Z,7.63
2024-02-10T15:33:48.061Z,6.80
2024-02-10T15:36:33.700Z,6.80
2024-02-10T15:39:05.836Z,7.20
2024-02-10T15:41:36.125Z,6.87
2024-02-10T15:44:07.574Z,7.20
2024-02-10T15:46:36.267Z,7.30
2024-02-10T15:49:03.669Z,6.90
2024-02-10T15:51:36.719Z,7.07
2024-02-10T15:54:05.420Z,6.60
2024-02-10T15:56:32.940Z,6.23
2024-02-10T15:59:01.327Z,6.97
2024-02-10T16:01:29.498Z,6.57
2024-02-10T16:03:58.958Z,7.27
2024-02-10T16:06:25.868Z,7.20
2024-02-10T16:08:52.707Z,6.83
2024-02-10T16:11:28.024Z,7.43
2024-02-10T16:13:54.898Z,6.97
2024-02-10T16:16:22.382Z,7.23
2024-02-10T16:18:50.002Z,7.17
2024-02-10T16:21:27.305Z,8.07
2024-02-10T16:23:55.212Z,7.20
2024-02-10T16:26:22.450Z,6.43
2024-02-10T16:28:51.943Z,7.13
2024-02-10T16:31:20.171Z,7.00
2024-02-10T16:33:52.643Z,5.93
2024-02-10T16:36:25.627Z,5.90
2024-02-10T16:38:52.728Z,5.27
2024-02-10T16:41:20.946Z,5.63
2024-02-10T16:43:48.011Z,5.50
2024-02-10T16:46:18.245Z,5.80
2024-02-10T16:48:50.398Z,5.43
2024-02-10T16:51:31.010Z,6.53
2024-02-10T16:54:00.413Z,5.63
2024-02-10T16:56:27.473Z,5.50
2024-02-10T16:58:55.311Z,6.30
2024-02-10T17:01:22.257Z,4.97
2024-02-10T17:03:49.069Z,5.50
2024-02-10T17:06:16.363Z,5.40
2024-02-10T17:08:45.911Z,5.80
2024-02-10T17:11:12.813Z,5.90
2024-02-10T17:13:39.760Z,5.17
2024-02-10T17:16:07.702Z,5.40
2024-02-10T17:18:35.088Z,5.00
2024-02-10T17:21:04.000Z,5.87
2024-02-10T17:23:31.006Z,5.50
2024-02-10T17:25:59.007Z,5.33
2024-02-10T17:28:28.776Z,6.10
2024-02-10T17:30:55.614Z,6.30
2024-02-10T17:33:23.707Z,5.87
2024-02-10T17:35:51.531Z,6.00
2024-02-10T17:38:25.402Z,5.57
2024-02-10T17:40:54.416Z,5.57
2024-02-10T17:43:21.864Z,5.17
2024-02-10T17:45:49.516Z,5.40
2024-02-10T17:48:24.087Z,7.27
2024-02-10T17:50:52.600Z,7.43
2024-02-10T17:53:26.791Z,6.27
2024-02-10T17:55:56.090Z,6.00
2024-02-10T17:58:29.764Z,5.67
2024-02-10T18:00:57.519Z,6.50
2024-02-10T18:03:25.582Z,6.10
2024-02-10T18:05:57.365Z,6.10
2024-02-10T18:08:25.032Z,5.80
2024-02-10T18:10:52.232Z,6.03
2024-02-10T18:13:23.924Z,7.07
2024-02-10T18:15:51.686Z,8.37
2024-02-10T18:18:19.468Z,8.00
2024-02-10T18:20:49.348Z,7.10
2024-02-10T18:23:16.454Z,7.03
2024-02-10T18:25:44.738Z,6.70
2024-02-10T18:28:13.838Z,6.93
2024-02-10T18:30:41.227Z,6.13
2024-02-10T18:33:08.333Z,5.73
2024-02-10T18:35:35.374Z,6.37
2024-02-10T18:38:03.028Z,7.03
2024-02-10T18:40:30.850Z,6.80
2024-02-10T18:42:59.531Z,6.30
2024-02-10T18:45:34.035Z,6.30
2024-02-10T18:48:07.226Z,6.67
2024-02-10T18:50:36.101Z,5.77
2024-02-10T18:53:07.586Z,5.90
2024-02-10T18:55:34.893Z,5.60
2024-02-10T18:58:01.921Z,5.87
2024-02-10T19:00:30.356Z,5.60
2024-02-10T19:02:57.318Z,5.40
2024-02-10T19:05:24.446Z,5.73
2024-02-10T19:07:51.652Z,5.07
2024-02-10T19:10:20.418Z,4.97
2024-02-10T19:12:51.085Z,5.03
2024-02-10T19:15:18.469Z,5.20
2024-02-10T19:17:46.527Z,4.40
2024-02-10T19:20:17.775Z,4.90
2024-02-10T19:22:46.579Z,5.57
2024-02-10T19:25:17.160Z,5.17
2024-02-10T19:27:46.318Z,5.47
2024-02-10T19:30:14.157Z,5.83
2024-02-10T19:32:45.304Z,5.37
2024-02-10T19:35:22.005Z,6.17
2024-02-10T19:37:50.214Z,5.60
2024-02-10T19:40:18.926Z,5.40
2024-02-10T19:42:46.976Z,5.67
2024-02-10T19:45:16.309Z,6.57
2024-02-10T19:47:46.946Z,5.27
2024-02-10T19:50:14.689Z,4.87
2024-02-10T19:52:42.325Z,4.80
2024-02-10T19:55:10.039Z,4.70
2024-02-10T19:57:41.171Z,4.47
2024-02-10T20:00:14.242Z,5.67
2024-02-10T20:02:43.759Z,5.47
2024-02-10T20:05:12.785Z,6.30
2024-02-10T20:07:42.223Z,6.30
2024-02-10T20:10:09.668Z,6.43
2024-02-10T20:12:39.358Z,5.37
2024-02-10T20:15:07.150Z,5.40
2024-02-10T20:17:34.055Z,4.93
2024-02-10T20:20:15.565Z,5.73
2024-02-10T20:22:42.696Z,7.90
2024-02-10T20:25:10.851Z,6.70
2024-02-10T20:27:37.733Z,6.40
2024-02-10T20:30:08.428Z,6.43
2024-02-10T20:32:35.363Z,5.10
2024-02-10T20:35:03.536Z,4.90
2024-02-10T20:37:35.439Z,4.97
2024-02-10T20:40:03.672Z,5.67
2024-02-10T20:42:30.567Z,5.33
2024-02-10T20:44:57.505Z,4.37
2024-02-10T20:47:24.408Z,4.70
2024-02-10T20:49:53.267Z,4.73
2024-02-10T20:52:20.134Z,5.10
2024-02-10T20:54:49.481Z,4.67
2024-02-10T20:57:18.111Z,4.97
2024-02-10T20:59:45.213Z,4.53
2024-02-10T21:02:12.992Z,5.00
2024-02-10T21:04:42.465Z,4.00
2024-02-10T21:07:10.930Z,4.10
2024-02-10T21:09:37.900Z,3.87
2024-02-10T21:12:05.532Z,3.87
2024-02-10T21:14:32.423Z,4.83
2024-02-10T21:16:59.343Z,6.23
2024-02-10T21:19:26.246Z,6.10
2024-02-10T21:21:53.226Z,5.83
2024-02-10T21:24:21.931Z,5.33
2024-02-10T21:26:50.106Z,5.70
2024-02-10T21:29:17.156Z,6.40
2024-02-10T21:31:44.129Z,7.20
2024-02-10T21:34:11.546Z,7.77
2024-02-10T21:36:38.863Z,6.80
2024-02-10T21:39:16.935Z,6.67
2024-02-10T21:41:44.359Z,6.30
2024-02-10T21:44:11.610Z,5.57
2024-02-10T21:46:39.111Z,5.57
2024-02-10T21:49:06.094Z,5.50
2024-02-10T21:51:37.015Z,5.07
2024-02-10T21:54:06.126Z,5.97
2024-02-10T21:56:42.745Z,5.00
2024-02-10T21:59:13.852Z,7.37
2024-02-10T22:01:42.358Z,5.77
2024-02-10T22:04:09.542Z,4.77
2024-02-10T22:06:37.532Z,5.90
2024-02-10T22:09:04.600Z,5.47
2024-02-10T22:11:32.012Z,6.33
2024-02-10T22:13:59.396Z,5.73
2024-02-10T22:16:26.405Z,5.93
2024-02-10T22:18:53.391Z,5.30
2024-02-10T22:21:20.457Z,5.00
2024-02-10T22:23:51.080Z,3.90
2024-02-10T22:26:22.394Z,3.93
2024-02-10T22:28:49.454Z,6.33
2024-02-10T22:31:17.197Z,8.43
2024-02-10T22:33:44.259Z,6.97
2024-02-10T22:36:12.525Z,8.77
2024-02-10T22:38:41.156Z,9.20
2024-02-10T22:41:08.124Z,7.80
2024-02-10T22:43:35.050Z,8.30
2024-02-10T22:46:03.216Z,7.20
2024-02-10T22:48:30.126Z,7.00
2024-02-10T22:50:57.165Z,6.73
2024-02-10T22:53:24.023Z,6.70
2024-02-10T22:55:52.005Z,7.67
2024-02-10T22:58:19.059Z,7.73
2024-02-10T23:00:51.579Z,7.10
2024-02-10T23:03:18.504Z,8.33
2024-02-10T23:05:51.150Z,6.93
2024-02-10T23:08:18.459Z,6.90
2024-02-10T23:10:45.708Z,6.70
2024-02-10T23:13:26.666Z,6.20
2024-02-10T23:15:53.585Z,5.67
2024-02-10T23:18:24.909Z,5.77
2024-02-10T23:20:52.710Z,6.03
2024-02-10T23:23:28.334Z,5.93
2024-02-10T23:25:56.776Z,6.17
2024-02-10T23:28:23.677Z,6.13
2024-02-10T23:30:52.391Z,7.27
2024-02-10T23:33:21.607Z,6.97
2024-02-10T23:35:48.998Z,6.83
2024-02-10T23:38:16.551Z,5.83
2024-02-10T23:40:47.648Z,10.47
2024-02-10T23:43:15.245Z,8.43
2024-02-10T23:45:43.916Z,10.67
2024-02-10T23:48:11.568Z,14.87
2024-02-10T23:50:38.880Z,13.40
2024-02-10T23:53:05.938Z,12.80
2024-02-10T23:55:38.150Z,11.17
2024-02-10T23:58:05.897Z,10.27
